createdAt,value
2023-10-05T00:01:23.251Z,3.70
2023-10-05T00:03:53.933Z,3.93
2023-10-05T00:06:25.106Z,3.83
2023-10-05T00:08:54.107Z,4.20
2023-10-05T00:11:45.739Z,3.80
2023-10-05T00:14:14.018Z,4.03
2023-10-05T00:16:45.587Z,3.83
2023-10-05T00:19:14.563Z,4.40
2023-10-05T00:21:53.039Z,4.50
2023-10-05T00:24:30.439Z,3.77
2023-10-05T00:26:59.556Z,4.33
2023-10-05T00:29:35.909Z,4.27
2023-10-05T00:32:07.616Z,4.13
2023-10-05T00:34:35.410Z,4.20
2023-10-05T00:37:07.503Z,3.67
2023-10-05T00:39:35.828Z,3.83
2023-10-05T00:42:06.320Z,3.53
2023-10-05T00:44:36.245Z,4.40
2023-10-05T00:47:07.718Z,4.13
2023-10-05T00:49:46.920Z,4.47
2023-10-05T00:52:16.690Z,4.30
2023-10-05T00:54:49.604Z,3.60
2023-10-05T00:57:25.558Z,4.43
2023-10-05T00:59:59.268Z,4.10
2023-10-05T01:02:28.062Z,3.90
2023-10-05T01:05:02.184Z,3.67
2023-10-05T01:07:50.935Z,4.10
2023-10-05T01:10:25.127Z,4.30
2023-10-05T01:12:55.458Z,4.30
2023-10-05T01:15:25.400Z,4.80
2023-10-05T01:17:53.996Z,4.90
2023-10-05T01:20:21.915Z,4.97
2023-10-05T01:22:50.398Z,4.30
2023-10-05T01:25:18.274Z,4.53
2023-10-05T01:27:48.364Z,4.33
2023-10-05T01:30:19.371Z,3.90
2023-10-05T01:32:47.696Z,4.30
2023-10-05T01:35:16.289Z,4.63
2023-10-05T01:37:48.001Z,4.57
2023-10-05T01:40:20.029Z,3.97
2023-10-05T01:42:53.281Z,4.90
2023-10-05T01:45:31.271Z,4.27
2023-10-05T01:48:06.457Z,4.27
2023-10-05T01:50:34.286Z,4.53
2023-10-05T01:53:08.545Z,4.30
2023-10-05T01:55:37.060Z,4.83
2023-10-05T01:58:09.528Z,4.97
2023-10-05T02:00:39.977Z,4.57
2023-10-05T02:03:09.310Z,4.40
2023-10-05T02:05:37.645Z,4.77
2023-10-05T02:08:06.303Z,5.93
2023-10-05T02:10:34.396Z,5.37
2023-10-05T02:13:02.603Z,4.97
2023-10-05T02:15:30.761Z,5.27
2023-10-05T02:18:08.639Z,5.20
2023-10-05T02:20:39.892Z,4.40
2023-10-05T02:23:25.697Z,5.23
2023-10-05T02:26:34.372Z,4.47
2023-10-05T02:29:14.965Z,4.60
2023-10-05T02:31:58.556Z,4.80
2023-10-05T02:34:30.519Z,5.00
2023-10-05T02:36:58.557Z,4.67
2023-10-05T02:39:26.280Z,4.87
2023-10-05T02:41:55.454Z,4.87
2023-10-05T02:44:23.395Z,4.43
2023-10-05T02:46:51.198Z,4.47
2023-10-05T02:49:19.850Z,5.50
2023-10-05T02:51:47.664Z,5.23
2023-10-05T02:54:16.218Z,4.83
2023-10-05T02:56:44.256Z,5.73
2023-10-05T02:59:12.260Z,5.00
2023-10-05T03:01:40.160Z,4.57
2023-10-05T03:04:17.099Z,4.87
2023-10-05T03:06:46.613Z,4.90
2023-10-05T03:09:14.483Z,5.43
2023-10-05T03:11:43.327Z,4.57
2023-10-05T03:14:12.525Z,4.70
2023-10-05T03:16:48.983Z,5.23
2023-10-05T03:19:22.007Z,4.30
2023-10-05T03:21:59.370Z,4.37
2023-10-05T03:24:27.442Z,4.37
2023-10-05T03:26:57.751Z,4.43
2023-10-05T03:29:25.744Z,4.00
2023-10-05T03:31:55.567Z,4.33
2023-10-05T03:34:28.071Z,4.60
2023-10-05T03:36:56.607Z,3.87
2023-10-05T03:39:26.862Z,4.60
2023-10-05T03:41:55.334Z,4.90
2023-10-05T03:44:25.839Z,4.60
2023-10-05T03:46:54.112Z,4.20
2023-10-05T03:49:23.608Z,4.80
2023-10-05T03:51:52.421Z,4.97
2023-10-05T03:54:25.705Z,4.30
2023-10-05T03:57:20.170Z,4.47
2023-10-05T03:59:48.839Z,4.67
2023-10-05T04:02:19.355Z,3.93
2023-10-05T04:04:47.113Z,4.67
2023-10-05T04:07:15.311Z,4.63
2023-10-05T04:09:43.062Z,3.70
2023-10-05T04:12:11.889Z,4.33
2023-10-05T04:14:40.091Z,4.33
2023-10-05T04:17:12.664Z,4.43
2023-10-05T04:19:43.180Z,4.20
2023-10-05T04:22:11.136Z,4.37
2023-10-05T04:24:39.849Z,4.40
2023-10-05T04:27:09.446Z,4.33
2023-10-05T04:29:38.914Z,4.40
2023-10-05T04:32:09.459Z,5.37
2023-10-05T04:34:37.265Z,4.77
2023-10-05T04:37:05.103Z,4.77
2023-10-05T04:39:33.999Z,5.30
2023-10-05T04:42:12.524Z,5.10
2023-10-05T04:44:41.706Z,6.10
2023-10-05T04:47:10.879Z,6.00
2023-10-05T04:49:39.169Z,6.20
2023-10-05T04:52:07.864Z,5.83
2023-10-05T04:54:40.643Z,7.07
2023-10-05T04:57:08.694Z,6.37
2023-10-05T04:59:36.424Z,5.27
2023-10-05T05:02:19.952Z,7.17
2023-10-05T05:04:47.798Z,6.50
2023-10-05T05:07:15.666Z,6.47
2023-10-05T05:09:43.681Z,6.40
2023-10-05T05:12:18.647Z,6.50
2023-10-05T05:14:47.798Z,5.90
2023-10-05T05:17:16.808Z,7.87
2023-10-05T05:19:45.938Z,5.90
2023-10-05T05:22:14.781Z,6.40
2023-10-05T05:24:42.728Z,7.53
2023-10-05T05:27:19.640Z,7.90
2023-10-05T05:29:47.973Z,6.33
2023-10-05T05:32:15.753Z,7.13
2023-10-05T05:34:44.162Z,8.03
2023-10-05T05:37:15.326Z,6.50
2023-10-05T05:39:44.041Z,6.67
2023-10-05T05:42:15.471Z,7.80
2023-10-05T05:44:43.279Z,6.97
2023-10-05T05:47:11.707Z,7.00
2023-10-05T05:49:39.875Z,8.33
2023-10-05T05:52:11.801Z,6.70
2023-10-05T05:54:40.140Z,7.10
2023-10-05T05:57:08.024Z,7.37
2023-10-05T05:59:35.824Z,7.13
2023-10-05T06:02:09.473Z,6.80
2023-10-05T06:04:37.622Z,6.00
2023-10-05T06:07:12.787Z,7.00
2023-10-05T06:09:46.909Z,5.60
2023-10-05T06:12:17.542Z,5.90
2023-10-05T06:19:07.868Z,4.83
2023-10-05T06:21:36.554Z,5.80
2023-10-05T06:24:56.229Z,5.40
2023-10-05T06:27:24.179Z,5.60
2023-10-05T06:29:51.959Z,6.20
2023-10-05T06:32:19.738Z,6.00
2023-10-05T06:34:49.261Z,6.50
2023-10-05T06:37:17.156Z,6.80
2023-10-05T06:39:45.042Z,6.80
2023-10-05T06:42:16.801Z,6.17
2023-10-05T06:44:45.915Z,6.43
2023-10-05T06:47:33.635Z,6.57
2023-10-05T06:50:01.664Z,6.17
2023-10-05T06:52:29.396Z,6.77
2023-10-05T06:54:57.164Z,7.17
2023-10-05T06:57:24.897Z,7.60
2023-10-05T06:59:56.550Z,16.17
2023-10-05T07:02:24.336Z,12.07
2023-10-05T07:04:52.177Z,9.27
2023-10-05T07:07:20.694Z,9.10
2023-10-05T07:09:48.498Z,7.03
2023-10-05T07:12:16.256Z,7.50
2023-10-05T07:14:45.790Z,7.63
2023-10-05T07:17:13.493Z,7.53
2023-10-05T07:19:43.073Z,7.60
2023-10-05T07:22:10.836Z,8.83
2023-10-05T07:24:38.586Z,9.77
2023-10-05T07:27:06.515Z,8.20
2023-10-05T07:29:35.032Z,9.10
2023-10-05T07:32:03.456Z,9.23
2023-10-05T07:34:32.115Z,8.77
2023-10-05T07:36:59.950Z,6.38
2023-10-05T07:39:29.887Z,6.10
2023-10-05T07:41:57.727Z,6.33
2023-10-05T07:44:25.629Z,6.03
2023-10-05T07:46:53.511Z,5.95
2023-10-05T07:49:21.941Z,5.53
2023-10-05T07:51:49.897Z,5.75
2023-10-05T07:54:17.680Z,4.90
2023-10-05T07:56:46.664Z,4.63
2023-10-05T07:59:17.409Z,4.78
2023-10-05T08:01:46.009Z,4.82
2023-10-05T08:04:14.023Z,4.75
2023-10-05T08:06:45.330Z,5.28
2023-10-05T08:09:27.792Z,4.95
2023-10-05T08:11:58.471Z,4.70
2023-10-05T08:14:26.309Z,5.22
2023-10-05T08:16:56.377Z,5.07
2023-10-05T08:19:26.252Z,4.93
2023-10-05T08:21:54.775Z,4.80
2023-10-05T08:24:24.930Z,4.80
2023-10-05T08:26:58.783Z,4.95
2023-10-05T08:29:27.730Z,4.70
2023-10-05T08:31:55.527Z,5.38
2023-10-05T08:34:23.540Z,4.80
2023-10-05T08:36:54.621Z,4.70
2023-10-05T08:39:29.044Z,5.03
2023-10-05T08:41:58.785Z,5.22
2023-10-05T08:44:29.820Z,4.93
2023-10-05T08:46:57.836Z,4.85
2023-10-05T08:49:26.107Z,4.53
2023-10-05T08:52:03.478Z,4.55
2023-10-05T08:54:34.572Z,4.13
2023-10-05T08:57:10.832Z,4.50
2023-10-05T08:59:40.621Z,4.65
2023-10-05T09:02:09.612Z,4.50
2023-10-05T09:04:46.730Z,4.43
2023-10-05T09:07:31.722Z,4.38
2023-10-05T09:09:59.830Z,4.18
2023-10-05T09:12:37.342Z,4.68
2023-10-05T09:15:06.564Z,4.72
2023-10-05T09:17:37.314Z,4.13
2023-10-05T09:20:34.355Z,3.78
2023-10-05T09:23:07.067Z,4.38
2023-10-05T09:25:41.461Z,3.75
2023-10-05T09:28:15.905Z,4.30
2023-10-05T09:31:01.340Z,4.38
2023-10-05T09:33:35.175Z,3.47
2023-10-05T09:36:17.555Z,3.83
2023-10-05T09:38:48.046Z,4.18
2023-10-05T09:41:19.524Z,3.90
2023-10-05T09:43:52.764Z,4.05
2023-10-05T09:46:21.787Z,4.47
2023-10-05T09:48:50.318Z,4.57
2023-10-05T09:51:18.118Z,3.58
2023-10-05T09:53:48.289Z,4.05
2023-10-05T09:56:23.542Z,3.90
2023-10-05T09:59:00.443Z,3.67
2023-10-05T10:01:28.359Z,4.30
2023-10-05T10:03:56.644Z,3.95
2023-10-05T10:06:29.549Z,3.80
2023-10-05T10:09:08.797Z,3.80
2023-10-05T10:11:36.941Z,4.25
2023-10-05T10:14:11.119Z,3.78
2023-10-05T10:16:43.262Z,4.13
2023-10-05T10:19:21.192Z,4.30
2023-10-05T10:21:51.048Z,4.40
2023-10-05T10:24:19.258Z,3.75
2023-10-05T10:27:14.631Z,4.20
2023-10-05T10:29:46.959Z,4.00
2023-10-05T10:32:21.601Z,3.53
2023-10-05T10:35:10.984Z,3.72
2023-10-05T10:37:45.767Z,4.30
2023-10-05T10:40:23.459Z,4.32
2023-10-05T10:43:08.977Z,4.32
2023-10-05T10:45:42.705Z,4.20
2023-10-05T10:48:20.741Z,3.72
2023-10-05T10:50:53.891Z,3.75
2023-10-05T10:53:26.947Z,3.92
2023-10-05T10:56:19.626Z,4.05
2023-10-05T10:58:49.552Z,4.15
2023-10-05T11:01:42.531Z,4.13
2023-10-05T11:04:25.032Z,3.70
2023-10-05T11:06:57.980Z,3.80
2023-10-05T11:09:35.371Z,3.70
2023-10-05T11:12:13.809Z,4.00
2023-10-05T11:14:43.613Z,3.40
2023-10-05T11:17:37.402Z,3.58
2023-10-05T11:20:19.044Z,3.75
2023-10-05T11:22:46.903Z,3.67
2023-10-05T11:25:17.799Z,3.78
2023-10-05T11:27:56.603Z,3.75
2023-10-05T11:30:53.625Z,3.75
2023-10-05T11:34:06.574Z,4.00
2023-10-05T11:36:46.010Z,4.10
2023-10-05T11:39:23.540Z,3.88
2023-10-05T11:41:52.330Z,3.38
2023-10-05T11:44:25.583Z,3.70
2023-10-05T11:46:56.253Z,3.58
2023-10-05T11:49:32.469Z,3.85
2023-10-05T11:52:01.731Z,3.90
2023-10-05T11:54:32.486Z,3.72
2023-10-05T11:57:06.657Z,3.67
2023-10-05T11:59:37.280Z,3.95
2023-10-05T12:02:10.272Z,4.55
2023-10-05T12:04:40.888Z,4.90
2023-10-05T12:07:12.560Z,4.18
2023-10-05T12:09:44.459Z,3.83
2023-10-05T12:12:14.615Z,3.33
2023-10-05T12:14:42.394Z,3.65
2023-10-05T12:17:11.462Z,3.78
2023-10-05T12:19:40.677Z,3.30
2023-10-05T12:22:15.087Z,3.65
2023-10-05T12:24:43.229Z,3.45
2023-10-05T12:27:22.216Z,3.30
2023-10-05T12:29:50.124Z,3.30
2023-10-05T12:32:18.919Z,3.40
2023-10-05T12:34:49.963Z,3.50
2023-10-05T12:37:22.810Z,3.05
2023-10-05T12:39:50.897Z,3.33
2023-10-05T12:42:21.652Z,3.78
2023-10-05T12:44:50.164Z,3.42
2023-10-05T12:47:18.256Z,3.30
2023-10-05T12:49:46.964Z,3.63
2023-10-05T12:52:14.879Z,3.50
2023-10-05T12:54:44.044Z,3.65
2023-10-05T12:59:43.524Z,3.58
2023-10-05T13:02:17.833Z,3.45
2023-10-05T13:04:46.102Z,4.05
2023-10-05T13:07:19.330Z,2.97
2023-10-05T13:10:00.501Z,3.33
2023-10-05T13:12:28.951Z,3.40
2023-10-05T13:14:56.661Z,3.28
2023-10-05T13:17:26.359Z,3.40
2023-10-05T13:19:54.228Z,3.05
2023-10-05T13:22:22.432Z,3.13
2023-10-05T13:24:56.511Z,3.30
2023-10-05T13:27:25.750Z,3.42
2023-10-05T13:29:55.455Z,3.20
2023-10-05T13:32:24.228Z,3.88
2023-10-05T13:34:52.128Z,3.60
2023-10-05T13:37:21.033Z,3.95
2023-10-05T13:39:49.120Z,4.07
2023-10-05T13:42:26.961Z,4.70
2023-10-05T13:44:55.937Z,4.32
2023-10-05T13:47:43.243Z,3.90
2023-10-05T13:50:16.679Z,3.60
2023-10-05T13:52:47.065Z,3.60
2023-10-05T13:55:15.504Z,3.20
2023-10-05T13:57:43.934Z,3.63
2023-10-05T14:00:19.149Z,3.53
2023-10-05T14:02:50.849Z,5.18
2023-10-05T14:05:22.100Z,5.30
2023-10-05T14:07:52.758Z,3.80
2023-10-05T14:10:24.867Z,3.50
2023-10-05T14:12:52.746Z,3.47
2023-10-05T14:15:23.949Z,3.17
2023-10-05T14:17:52.227Z,3.30
2023-10-05T14:20:20.239Z,3.05
2023-10-05T14:22:48.288Z,4.13
2023-10-05T14:25:19.934Z,3.80
2023-10-05T14:27:49.342Z,3.80
2023-10-05T14:30:21.378Z,3.45
2023-10-05T14:32:52.221Z,3.45
2023-10-05T14:35:20.357Z,3.40
2023-10-05T14:37:51.074Z,3.40
2023-10-05T14:40:25.657Z,3.08
2023-10-05T14:42:57.942Z,2.90
2023-10-05T14:45:28.302Z,3.20
2023-10-05T14:47:59.369Z,3.72
2023-10-05T14:50:27.408Z,3.33
2023-10-05T14:52:56.728Z,3.63
2023-10-05T14:55:24.792Z,3.63
2023-10-05T14:57:52.724Z,3.85
2023-10-05T15:00:20.550Z,3.55
2023-10-05T15:02:48.456Z,3.28
2023-10-05T15:05:16.360Z,3.38
2023-10-05T15:07:44.229Z,3.33
2023-10-05T15:10:18.728Z,3.28
2023-10-05T15:12:50.523Z,3.70
2023-10-05T15:15:18.684Z,3.42
2023-10-05T15:17:47.358Z,3.55
2023-10-05T15:20:18.162Z,3.28
2023-10-05T15:22:46.119Z,4.22
2023-10-05T15:25:16.630Z,3.75
2023-10-05T15:27:44.619Z,3.83
2023-10-05T15:30:16.659Z,3.53
2023-10-05T15:32:46.429Z,4.05
2023-10-05T15:35:15.719Z,4.00
2023-10-05T15:37:44.687Z,4.13
2023-10-05T15:40:16.318Z,3.70
2023-10-05T15:42:48.215Z,4.05
2023-10-05T15:45:17.773Z,3.60
2023-10-05T15:47:45.637Z,3.95
2023-10-05T15:50:17.101Z,4.07
2023-10-05T15:52:57.250Z,3.38
2023-10-05T15:55:26.119Z,5.25
2023-10-05T15:57:55.106Z,5.65
2023-10-05T16:00:30.238Z,5.70
2023-10-05T16:02:59.501Z,5.05
2023-10-05T16:05:28.852Z,4.65
2023-10-05T16:07:57.433Z,4.90
2023-10-05T16:10:25.222Z,4.40
2023-10-05T16:12:54.390Z,4.22
2023-10-05T16:15:22.341Z,4.28
2023-10-05T16:17:50.269Z,5.55
2023-10-05T16:20:26.463Z,9.55
2023-10-05T16:23:02.271Z,5.70
2023-10-05T16:25:30.237Z,5.45
2023-10-05T16:27:58.338Z,5.45
2023-10-05T16:30:26.169Z,6.35
2023-10-05T16:32:59.246Z,7.97
2023-10-05T16:35:27.300Z,7.80
2023-10-05T16:37:55.767Z,6.65
2023-10-05T16:40:26.781Z,5.25
2023-10-05T16:42:54.804Z,4.82
2023-10-05T16:45:23.156Z,4.68
2023-10-05T16:47:52.193Z,4.70
2023-10-05T16:50:20.884Z,4.45
2023-10-05T16:52:49.967Z,4.28
2023-10-05T16:55:22.664Z,4.28
2023-10-05T16:57:54.799Z,4.05
2023-10-05T17:00:28.267Z,3.80
2023-10-05T17:02:56.869Z,4.00
2023-10-05T17:05:29.641Z,3.58
2023-10-05T17:08:00.492Z,3.30
2023-10-05T17:10:28.839Z,3.72
2023-10-05T17:12:56.823Z,3.75
2023-10-05T17:15:25.179Z,3.53
2023-10-05T17:17:57.274Z,4.90
2023-10-05T17:20:25.324Z,5.68
2023-10-05T17:22:56.198Z,4.20
2023-10-05T17:25:24.644Z,4.63
2023-10-05T17:27:52.911Z,4.60
2023-10-05T17:30:20.790Z,4.80
2023-10-05T17:32:49.037Z,5.28
2023-10-05T17:35:25.728Z,5.40
2023-10-05T17:37:54.967Z,5.22
2023-10-05T17:40:23.117Z,5.45
2023-10-05T17:42:51.043Z,4.38
2023-10-05T17:45:19.990Z,5.30
2023-10-05T17:47:50.274Z,6.15
2023-10-05T17:50:18.243Z,16.27
2023-10-05T17:52:46.762Z,7.10
2023-10-05T17:55:15.457Z,5.65
2023-10-05T17:57:43.675Z,5.28
2023-10-05T18:00:16.762Z,8.10
2023-10-05T18:02:46.080Z,6.40
2023-10-05T18:05:16.928Z,5.95
2023-10-05T18:07:45.134Z,7.30
2023-10-05T18:10:13.163Z,7.00
2023-10-05T18:12:41.336Z,7.13
2023-10-05T18:15:09.379Z,7.55
2023-10-05T18:17:37.222Z,7.78
2023-10-05T18:20:05.673Z,13.05
2023-10-05T18:22:33.971Z,14.63
2023-10-05T18:25:01.993Z,14.40
2023-10-05T18:27:29.826Z,12.02
2023-10-05T18:29:59.214Z,9.13
2023-10-05T18:32:27.141Z,7.40
2023-10-05T18:34:55.069Z,7.18
2023-10-05T18:37:22.843Z,7.40
2023-10-05T18:39:50.689Z,10.38
2023-10-05T18:42:19.992Z,13.05
2023-10-05T18:44:47.858Z,15.30
2023-10-05T18:47:15.750Z,15.57
2023-10-05T18:49:43.542Z,17.17
2023-10-05T18:52:11.725Z,20.55
2023-10-05T18:54:39.561Z,23.40
2023-10-05T18:57:07.874Z,22.75
2023-10-05T18:59:35.767Z,16.58
2023-10-05T19:02:04.269Z,12.73
2023-10-05T19:04:33.478Z,9.07
2023-10-05T19:07:01.455Z,16.85
2023-10-05T19:09:29.203Z,18.77
2023-10-05T19:11:57.019Z,30.63
2023-10-05T19:14:25.244Z,32.15
2023-10-05T19:16:53.489Z,29.10
2023-10-05T19:19:21.351Z,29.98
2023-10-05T19:21:49.117Z,32.25
2023-10-05T19:24:16.849Z,31.85
2023-10-05T19:26:49.171Z,28.75
2023-10-05T19:29:19.860Z,27.45
2023-10-05T19:31:47.802Z,26.58
2023-10-05T19:34:16.474Z,25.48
2023-10-05T19:36:44.370Z,22.52
2023-10-05T19:39:12.196Z,22.25
2023-10-05T19:41:40.134Z,21.35
2023-10-05T19:44:08.146Z,20.05
2023-10-05T19:46:37.225Z,19.92
2023-10-05T19:49:07.659Z,18.08
2023-10-05T19:51:35.944Z,17.77
2023-10-05T19:54:05.026Z,16.05
2023-10-05T19:56:37.586Z,13.45
2023-10-05T19:59:06.178Z,7.87
2023-10-05T20:01:34.021Z,8.23
2023-10-05T20:04:02.425Z,7.72
2023-10-05T20:06:31.058Z,9.13
2023-10-05T20:08:59.162Z,12.00
2023-10-05T20:11:26.961Z,10.90
2023-10-05T20:13:54.791Z,9.48
2023-10-05T20:16:22.609Z,8.70
2023-10-05T20:18:50.414Z,7.80
2023-10-05T20:21:18.227Z,7.50
2023-10-05T20:23:46.634Z,6.97
2023-10-05T20:26:14.364Z,7.57
2023-10-05T20:28:42.199Z,6.70
2023-10-05T20:31:10.847Z,7.30
2023-10-05T20:33:38.810Z,6.03
2023-10-05T20:36:07.685Z,6.03
2023-10-05T20:38:35.447Z,5.83
2023-10-05T20:41:05.745Z,5.53
2023-10-05T20:43:34.194Z,6.60
2023-10-05T20:46:09.091Z,7.40
2023-10-05T20:48:37.880Z,7.67
2023-10-05T20:51:05.741Z,7.60
2023-10-05T20:53:35.107Z,7.50
2023-10-05T20:56:12.727Z,7.17
2023-10-05T20:58:40.658Z,8.17
2023-10-05T21:01:08.486Z,7.93
2023-10-05T21:03:36.645Z,7.13
2023-10-05T21:06:06.020Z,7.57
2023-10-05T21:08:34.884Z,7.70
2023-10-05T21:11:03.601Z,6.67
2023-10-05T21:13:37.560Z,6.63
2023-10-05T21:16:05.576Z,6.50
2023-10-05T21:18:33.407Z,5.90
2023-10-05T21:21:01.252Z,6.37
2023-10-05T21:23:30.597Z,6.70
2023-10-05T21:25:58.409Z,6.77
2023-10-05T21:28:26.941Z,6.40
2023-10-05T21:30:55.363Z,6.10
2023-10-05T21:33:23.305Z,5.37
2023-10-05T21:35:51.269Z,5.50
2023-10-05T21:38:18.996Z,5.40
2023-10-05T21:40:46.817Z,5.80
2023-10-05T21:43:14.656Z,5.67
2023-10-05T21:45:42.349Z,5.20
2023-10-05T21:48:10.165Z,5.80
2023-10-05T21:50:37.911Z,4.30
2023-10-05T21:53:06.392Z,4.10
2023-10-05T21:55:34.809Z,4.80
2023-10-05T21:58:02.660Z,4.60
2023-10-05T22:00:42.508Z,4.53
2023-10-05T22:03:10.487Z,5.00
2023-10-05T22:05:38.678Z,4.40
2023-10-05T22:08:09.611Z,4.87
2023-10-05T22:10:41.419Z,5.17
2023-10-05T22:13:12.431Z,4.93
2023-10-05T22:15:40.206Z,6.70
2023-10-05T22:18:08.075Z,8.30
2023-10-05T22:20:36.629Z,8.83
2023-10-05T22:23:05.405Z,7.97
2023-10-05T22:25:36.768Z,10.13
2023-10-05T22:28:06.312Z,14.53
2023-10-05T22:30:34.770Z,12.73
2023-10-05T22:33:03.156Z,10.80
2023-10-05T22:35:30.980Z,16.07
2023-10-05T22:37:58.877Z,17.00
2023-10-05T22:40:26.732Z,14.57
2023-10-05T22:42:54.539Z,14.93
2023-10-05T22:45:23.350Z,15.87
2023-10-05T22:47:51.245Z,17.23
2023-10-05T22:50:19.048Z,21.13
2023-10-05T22:52:46.824Z,23.77
2023-10-05T22:55:14.649Z,28.57
2023-10-05T22:57:42.416Z,30.33
2023-10-05T23:00:13.444Z,29.73
2023-10-05T23:02:41.388Z,15.90
2023-10-05T23:05:09.764Z,10.13
2023-10-05T23:07:40.391Z,6.20
2023-10-05T23:10:08.558Z,6.70
2023-10-05T23:12:36.413Z,6.87
2023-10-05T23:15:06.159Z,8.70
2023-10-05T23:17:37.884Z,10.43
2023-10-05T23:20:12.205Z,14.67
2023-10-05T23:22:43.199Z,24.93
2023-10-05T23:25:22.534Z,25.23
2023-10-05T23:27:50.842Z,18.83
2023-10-05T23:30:19.417Z,17.27
2023-10-05T23:32:48.470Z,16.13
2023-10-05T23:35:17.250Z,16.63
2023-10-05T23:37:46.020Z,13.70
2023-10-05T23:40:13.917Z,10.00
2023-10-05T23:42:42.121Z,8.00
2023-10-05T23:45:12.286Z,9.00
2023-10-05T23:47:40.216Z,8.67
2023-10-05T23:50:11.828Z,8.27
2023-10-05T23:52:39.757Z,6.63
2023-10-05T23:55:10.054Z,7.57
2023-10-05T23:57:38.688Z,7.67
